Time;durP1;ratioP1;P1;durP2;ratioP2;P2;SDS_P1;SDS_P2;PMS_P1;PMS_P2;Temp;Humidity;BMP_temperature;BMP_pressure;BME280_temperature;BME280_humidity;BME280_pressure;Samples;Min_cycle;Max_cycle;Signal;HPM_P1;HPM_P2
2022/05/23 00:01:19;;;;;;;8.25;2.70;;;15.60;99.90;;;;;;5086265;28;20474;-66
2022/05/23 00:03:44;;;;;;;5.65;2.45;;;15.60;99.90;;;;;;5084288;28;20040;-66
2022/05/23 00:06:11;;;;;;;6.95;2.47;;;15.60;99.90;;;;;;5091904;28;20097;-66
2022/05/23 00:08:37;;;;;;;8.43;2.80;;;15.60;99.90;;;;;;5086947;28;20203;-66
2022/05/23 00:11:02;;;;;;;7.78;2.65;;;15.50;99.90;;;;;;5085385;28;20517;-66
2022/05/23 00:13:28;;;;;;;5.90;2.50;;;15.50;99.90;;;;;;5091329;28;20039;-66
2022/05/23 00:15:54;;;;;;;3.92;2.25;;;15.40;99.90;;;;;;5088111;28;20032;-66
2022/05/23 00:18:19;;;;;;;5.70;2.40;;;15.40;99.90;;;;;;5091823;28;20032;-66
2022/05/23 00:20:45;;;;;;;8.77;2.40;;;15.40;99.90;;;;;;5086938;28;20036;-66
2022/05/23 00:23:10;;;;;;;6.45;2.47;;;15.40;99.90;;;;;;5101885;28;20071;-66
2022/05/23 00:25:36;;;;;;;6.10;2.80;;;15.30;99.90;;;;;;5093130;28;20149;-66
2022/05/23 00:28:01;;;;;;;5.00;2.50;;;15.30;99.90;;;;;;5077632;28;20040;-66
2022/05/23 00:30:27;;;;;;;6.57;2.70;;;15.30;99.90;;;;;;5076191;28;20083;-66
2022/05/23 00:35:44;;;;;;;8.57;3.13;;;15.30;99.90;;;;;;5097153;28;20356;-66
2022/05/23 00:38:09;;;;;;;7.13;2.92;;;15.30;99.90;;;;;;5079361;28;20044;-66
2022/05/23 00:44:00;;;;;;;4.50;2.90;;;15.30;99.90;;;;;;5104742;28;20483;-66
2022/05/23 00:46:26;;;;;;;7.53;3.10;;;15.30;99.90;;;;;;5081612;28;20123;-66
2022/05/23 00:48:52;;;;;;;7.18;2.72;;;15.30;99.90;;;;;;5082328;28;20503;-66
2022/05/23 00:51:18;;;;;;;8.18;3.33;;;15.30;99.90;;;;;;5064375;28;20072;-66
2022/05/23 00:53:55;;;;;;;6.88;2.95;;;15.30;99.90;;;;;;5090616;28;20047;-66
2022/05/23 00:56:25;;;;;;;8.00;3.20;;;15.30;99.90;;;;;;5087750;28;20036;-66
2022/05/23 00:58:59;;;;;;;5.60;2.78;;;15.30;99.90;;;;;;5090124;28;20040;-66
2022/05/23 01:01:28;;;;;;;8.02;3.20;;;15.30;99.90;;;;;;5081067;28;20044;-66
2022/05/23 01:03:54;;;;;;;8.52;3.08;;;15.20;99.90;;;;;;5082463;28;20045;-66
2022/05/23 01:06:20;;;;;;;7.75;2.78;;;15.30;99.90;;;;;;5087660;28;20039;-66
2022/05/23 01:08:47;;;;;;;6.88;2.58;;;15.30;99.90;;;;;;5089957;28;20486;-66
2022/05/23 01:11:13;;;;;;;8.15;2.75;;;15.20;99.90;;;;;;5089531;28;20044;-66
2022/05/23 01:13:39;;;;;;;6.35;2.63;;;15.20;99.90;;;;;;5083585;28;20120;-66
2022/05/23 01:16:05;;;;;;;7.95;2.83;;;15.20;99.90;;;;;;5089916;28;20047;-66
2022/05/23 01:18:31;;;;;;;6.65;2.78;;;15.20;99.90;;;;;;5082982;28;20041;-66
2022/05/23 01:21:01;;;;;;;9.93;2.88;;;15.20;99.90;;;;;;5084114;28;20150;-66
2022/05/23 01:23:37;;;;;;;5.65;2.72;;;15.20;99.90;;;;;;5091757;28;20401;-66
2022/05/23 01:26:04;;;;;;;5.13;2.65;;;15.20;99.90;;;;;;5090401;28;20036;-66
2022/05/23 01:28:38;;;;;;;7.80;2.80;;;15.20;99.90;;;;;;5081468;28;20036;-66
2022/05/23 01:31:09;;;;;;;6.63;2.65;;;15.20;99.90;;;;;;5087358;28;20043;-66
2022/05/23 01:33:35;;;;;;;6.47;2.92;;;15.20;99.90;;;;;;5088802;28;20394;-66
2022/05/23 01:36:01;;;;;;;6.75;2.75;;;15.20;99.90;;;;;;5077821;28;20036;-66
2022/05/23 01:38:27;;;;;;;5.70;2.55;;;15.20;99.90;;;;;;5080549;28;20086;-66
2022/05/23 01:40:57;;;;;;;7.38;3.25;;;15.20;99.90;;;;;;5073369;28;20119;-66
2022/05/23 01:43:24;;;;;;;6.72;2.95;;;15.20;99.90;;;;;;5079052;28;20040;-66
2022/05/23 01:45:49;;;;;;;6.13;2.60;;;15.20;99.90;;;;;;5089812;28;20036;-66
2022/05/23 01:48:15;;;;;;;6.03;2.72;;;15.20;99.90;;;;;;5087544;28;20039;-66
2022/05/23 01:50:41;;;;;;;6.88;2.53;;;15.20;99.90;;;;;;5076818;28;20044;-66
2022/05/23 01:53:06;;;;;;;3.75;2.38;;;15.10;99.90;;;;;;5090145;28;20119;-66
2022/05/23 01:55:32;;;;;;;9.82;3.00;;;15.10;99.90;;;;;;5083884;28;20510;-66
2022/05/23 01:57:58;;;;;;;5.97;2.88;;;15.10;99.90;;;;;;5078057;28;20036;-66
2022/05/23 02:03:08;;;;;;;6.15;2.60;;;15.00;99.90;;;;;;5087477;28;20115;-66
2022/05/23 02:05:34;;;;;;;5.45;2.55;;;15.00;99.90;;;;;;5055700;28;20119;-66
2022/05/23 02:08:00;;;;;;;5.00;2.47;;;15.00;99.90;;;;;;5089037;28;20474;-66
2022/05/23 02:10:27;;;;;;;6.38;2.88;;;15.00;99.90;;;;;;5084496;28;20040;-66
2022/05/23 02:12:53;;;;;;;7.65;2.78;;;15.00;99.90;;;;;;5085820;28;20043;-66
2022/05/23 02:15:20;;;;;;;10.23;2.72;;;15.00;99.90;;;;;;5089239;28;20406;-66
2022/05/23 02:17:46;;;;;;;8.27;2.80;;;15.00;99.90;;;;;;5085914;28;20045;-66
2022/05/23 02:20:13;;;;;;;4.88;2.53;;;15.00;99.90;;;;;;5090041;28;20044;-66
2022/05/23 02:22:39;;;;;;;6.28;2.50;;;15.00;99.90;;;;;;5084253;28;20045;-66
2022/05/23 02:25:07;;;;;;;8.02;2.72;;;14.90;99.90;;;;;;5081665;28;20085;-66
2022/05/23 02:27:33;;;;;;;5.00;2.60;;;14.90;99.90;;;;;;5081980;28;20040;-66
2022/05/23 02:29:58;;;;;;;5.07;2.53;;;14.90;99.90;;;;;;5089300;28;20135;-66
2022/05/23 02:32:24;;;;;;;5.65;2.83;;;15.00;99.90;;;;;;5088232;28;20120;-66
2022/05/23 02:34:50;;;;;;;5.55;2.58;;;14.90;99.90;;;;;;5080643;28;20139;-66
2022/05/23 02:37:16;;;;;;;8.13;2.63;;;14.90;99.90;;;;;;5073265;28;20031;-66
2022/05/23 02:39:41;;;;;;;4.85;2.50;;;14.90;99.90;;;;;;5088937;28;20490;-66
2022/05/23 02:42:08;;;;;;;6.03;2.67;;;14.90;99.90;;;;;;5088469;28;20280;-66
2022/05/23 02:44:35;;;;;;;5.40;2.72;;;14.90;99.90;;;;;;5085524;28;20043;-66
2022/05/23 02:47:00;;;;;;;7.20;2.83;;;14.90;99.90;;;;;;5089839;28;20091;-66
2022/05/23 02:49:26;;;;;;;4.43;2.33;;;14.90;99.90;;;;;;5090162;28;20051;-66
2022/05/23 02:51:53;;;;;;;4.80;2.70;;;14.90;99.90;;;;;;5085250;28;20047;-66
2022/05/23 02:54:18;;;;;;;7.68;2.80;;;14.90;99.90;;;;;;5090037;28;20413;-66
2022/05/23 02:56:44;;;;;;;9.02;2.75;;;14.90;99.90;;;;;;5083085;28;20032;-66
2022/05/23 02:59:10;;;;;;;5.00;2.50;;;14.90;99.90;;;;;;5088000;28;20379;-66
2022/05/23 03:03:01;;;;;;;5.35;2.38;;;14.90;99.90;;;;;;5086244;28;20206;-66
2022/05/23 03:04:21;;;;;;;7.07;3.13;;;14.90;99.90;;;;;;5084477;28;20079;-66
2022/05/23 03:06:46;;;;;;;3.55;2.53;;;14.90;99.90;;;;;;5089138;28;20509;-66
2022/05/23 03:09:12;;;;;;;5.82;2.60;;;14.90;99.90;;;;;;5085538;28;20534;-66
2022/05/23 03:11:37;;;;;;;7.15;3.08;;;14.90;99.90;;;;;;5089336;28;20047;-66
2022/05/23 03:14:03;;;;;;;6.20;2.67;;;14.90;99.90;;;;;;5092292;28;20047;-66
2022/05/23 03:16:28;;;;;;;7.80;3.00;;;14.80;99.90;;;;;;5090126;28;20028;-66
2022/05/23 03:18:54;;;;;;;10.60;3.20;;;14.80;99.90;;;;;;5082663;28;20043;-66
2022/05/23 03:27:00;;;;;;;5.13;2.90;;;14.80;99.90;;;;;;5092814;28;20043;-66
2022/05/23 03:29:30;;;;;;;7.47;3.03;;;14.80;99.90;;;;;;5078963;28;20048;-66
2022/05/23 03:31:55;;;;;;;9.32;3.42;;;14.70;99.90;;;;;;5084065;28;20040;-66
2022/05/23 03:34:21;;;;;;;6.90;2.90;;;14.70;99.90;;;;;;5084437;28;20390;-66
2022/05/23 03:36:47;;;;;;;6.65;3.15;;;14.70;99.90;;;;;;5091748;28;20130;-66
2022/05/23 03:39:12;;;;;;;8.00;3.05;;;14.70;99.90;;;;;;5078408;28;20410;-66
2022/05/23 03:41:38;;;;;;;7.70;2.75;;;14.60;99.90;;;;;;5085518;28;20468;-66
2022/05/23 03:44:08;;;;;;;8.57;3.17;;;14.60;99.90;;;;;;5092758;28;20040;-66
2022/05/23 03:46:35;;;;;;;4.97;2.97;;;14.60;99.90;;;;;;5090660;28;20044;-66
2022/05/23 03:49:01;;;;;;;6.75;3.00;;;14.60;99.90;;;;;;5072240;28;20044;-66
2022/05/23 03:51:27;;;;;;;6.07;3.17;;;14.50;99.90;;;;;;5091828;28;20040;-66
2022/05/23 03:53:53;;;;;;;4.97;3.17;;;14.50;99.90;;;;;;5090621;28;20105;-66
2022/05/23 03:56:19;;;;;;;6.07;3.40;;;14.50;99.90;;;;;;5085559;28;20031;-66
2022/05/23 03:58:45;;;;;;;8.48;3.03;;;14.50;99.90;;;;;;5088595;28;20462;-66
2022/05/23 04:01:15;;;;;;;7.55;3.17;;;14.50;99.90;;;;;;5086261;28;20119;-66
2022/05/23 04:03:41;;;;;;;7.93;3.15;;;14.40;99.90;;;;;;5077532;28;20131;-66
2022/05/23 04:06:07;;;;;;;5.28;2.97;;;14.40;99.90;;;;;;5083105;28;20073;-66
2022/05/23 04:08:33;;;;;;;9.05;3.10;;;14.40;99.90;;;;;;5073927;28;20028;-66
2022/05/23 04:10:59;;;;;;;6.93;3.20;;;14.40;99.90;;;;;;5086419;28;20416;-66
2022/05/23 04:13:26;;;;;;;8.32;3.20;;;14.40;99.90;;;;;;5082674;28;20036;-66
2022/05/23 04:15:52;;;;;;;5.18;3.28;;;14.40;99.90;;;;;;5084246;28;20059;-66
2022/05/23 04:18:17;;;;;;;6.10;3.50;;;14.40;99.90;;;;;;5072543;28;20486;-66
2022/05/23 04:20:44;;;;;;;8.40;3.20;;;14.30;99.90;;;;;;5072555;28;20186;-66
2022/05/23 04:23:10;;;;;;;5.88;3.28;;;14.40;99.90;;;;;;5100107;28;20052;-66
2022/05/23 04:25:40;;;;;;;8.32;2.83;;;14.40;99.90;;;;;;5089314;28;20036;-66
2022/05/23 04:28:06;;;;;;;7.95;3.40;;;14.40;99.90;;;;;;5091928;28;20409;-66
2022/05/23 04:30:32;;;;;;;6.68;2.85;;;14.40;99.90;;;;;;5091683;28;20286;-66
2022/05/23 04:35:41;;;;;;;7.72;3.55;;;14.40;99.90;;;;;;5090681;28;20040;-66
2022/05/23 04:38:07;;;;;;;6.15;3.00;;;14.40;99.90;;;;;;5090764;28;20047;-66
2022/05/23 04:40:33;;;;;;;9.00;3.78;;;14.40;99.90;;;;;;5088448;28;20044;-66
2022/05/23 04:42:58;;;;;;;10.27;3.30;;;14.40;99.90;;;;;;5080833;28;20502;-66
2022/05/23 04:45:24;;;;;;;7.15;3.30;;;14.40;99.90;;;;;;5079414;28;20406;-66
2022/05/23 04:50:33;;;;;;;7.25;3.35;;;14.50;99.90;;;;;;5079824;28;20044;-66
2022/05/23 04:53:01;;;;;;;8.30;3.35;;;14.50;99.90;;;;;;5082030;28;20041;-66
2022/05/23 04:55:27;;;;;;;9.75;3.42;;;14.50;99.90;;;;;;5072241;28;20051;-66
2022/05/23 04:57:53;;;;;;;7.90;3.35;;;14.50;99.90;;;;;;5071278;28;20048;-66
2022/05/23 05:00:21;;;;;;;6.75;3.55;;;14.50;99.90;;;;;;5077754;28;20124;-66
2022/05/23 05:02:48;;;;;;;8.32;3.55;;;14.50;99.90;;;;;;5076487;28;20040;-66
2022/05/23 05:05:15;;;;;;;6.13;3.90;;;14.50;99.90;;;;;;5078149;28;20035;-66
2022/05/23 05:07:40;;;;;;;7.00;3.55;;;14.50;99.90;;;;;;5081609;28;21913;-67
2022/05/23 05:10:07;;;;;;;7.22;3.78;;;14.50;99.90;;;;;;5082289;28;20130;-66
2022/05/23 05:12:32;;;;;;;6.10;3.33;;;14.50;99.90;;;;;;5080619;28;20047;-66
2022/05/23 05:14:59;;;;;;;11.77;4.30;;;14.60;99.90;;;;;;5080485;28;20032;-66
2022/05/23 05:17:25;;;;;;;8.98;4.10;;;14.50;99.90;;;;;;5077052;28;20052;-66
2022/05/23 05:19:51;;;;;;;7.35;3.65;;;14.50;99.90;;;;;;5079378;28;20085;-66
2022/05/23 05:22:16;;;;;;;8.65;3.80;;;14.60;99.90;;;;;;5083773;28;20055;-66
2022/05/23 05:24:42;;;;;;;8.55;3.97;;;14.60;99.90;;;;;;5103854;28;20044;-66
2022/05/23 05:27:10;;;;;;;8.27;4.20;;;14.60;99.90;;;;;;5088045;28;20642;-67
2022/05/23 05:29:35;;;;;;;9.65;4.10;;;14.70;99.90;;;;;;5080780;28;20052;-66
2022/05/23 05:32:25;;;;;;;6.88;4.10;;;14.80;99.90;;;;;;5070101;28;20402;-66
2022/05/23 05:34:55;;;;;;;9.73;4.28;;;14.80;99.90;;;;;;5079721;28;20059;-66
2022/05/23 05:37:31;;;;;;;7.07;4.20;;;14.80;99.90;;;;;;5077929;22;20048;-64
2022/05/23 05:40:02;;;;;;;7.10;3.72;;;14.90;99.90;;;;;;5060553;28;20040;-67
2022/05/23 05:42:36;;;;;;;6.80;4.15;;;14.90;99.90;;;;;;5069550;28;20040;-64
2022/05/23 05:45:10;;;;;;;11.00;4.30;;;15.00;99.90;;;;;;5068264;28;20561;-64
2022/05/23 05:47:39;;;;;;;12.25;4.63;;;15.00;99.90;;;;;;5069803;28;20044;-64
2022/05/23 05:50:28;;;;;;;7.05;4.25;;;15.00;99.90;;;;;;5056455;28;20067;-64
2022/05/23 05:52:59;;;;;;;9.15;4.28;;;15.00;99.90;;;;;;5052808;28;20041;-64
2022/05/23 05:55:25;;;;;;;11.23;4.50;;;15.00;99.90;;;;;;5068045;28;20072;-64
2022/05/23 05:57:50;;;;;;;8.80;4.57;;;15.10;99.90;;;;;;5061993;28;20075;-64
2022/05/23 06:00:16;;;;;;;6.47;4.18;;;15.10;99.90;;;;;;5057093;28;20090;-64
2022/05/23 06:02:43;;;;;;;7.63;4.45;;;15.10;99.90;;;;;;5055512;28;20041;-64
2022/05/23 06:05:08;;;;;;;7.20;4.25;;;15.20;99.90;;;;;;5057252;28;20029;-64
2022/05/23 06:13:03;;;;;;;9.30;5.15;;;15.40;99.90;;;;;;5049973;28;20053;-64
2022/05/23 06:15:29;;;;;;;7.40;3.90;;;15.50;99.90;;;;;;5049995;28;20395;-64
2022/05/23 06:17:55;;;;;;;8.63;4.68;;;15.60;99.90;;;;;;5058441;28;20037;-64
2022/05/23 06:20:23;;;;;;;7.38;4.90;;;15.60;99.90;;;;;;5042671;28;20047;-64
2022/05/23 06:22:50;;;;;;;11.05;4.07;;;15.70;99.90;;;;;;5051014;28;20028;-64
2022/05/23 06:25:16;;;;;;;7.68;4.55;;;15.70;99.90;;;;;;5051962;28;20036;-64
2022/05/23 06:27:42;;;;;;;8.35;4.32;;;15.80;99.90;;;;;;5050727;28;20494;-64
2022/05/23 06:30:10;;;;;;;6.68;4.47;;;15.90;99.90;;;;;;5069303;28;20119;-64
2022/05/23 06:32:36;;;;;;;11.40;4.93;;;16.00;99.90;;;;;;5070877;28;20040;-64
2022/05/23 06:35:01;;;;;;;8.48;4.65;;;16.00;99.90;;;;;;5059857;28;20033;-64
2022/05/23 06:37:27;;;;;;;8.98;4.60;;;16.10;99.90;;;;;;5048386;28;20044;-64
2022/05/23 06:39:53;;;;;;;15.00;5.25;;;16.20;99.90;;;;;;5048747;28;20576;-65
2022/05/23 06:42:19;;;;;;;9.13;4.95;;;16.20;99.90;;;;;;5061897;28;20066;-64
2022/05/23 06:44:44;;;;;;;8.65;4.70;;;16.30;99.90;;;;;;5048734;28;20093;-64
2022/05/23 06:47:10;;;;;;;8.73;5.10;;;16.40;99.90;;;;;;5050121;28;20049;-64
2022/05/23 06:49:36;;;;;;;7.82;4.90;;;16.50;99.90;;;;;;5064232;28;20518;-64
2022/05/23 06:52:02;;;;;;;7.05;4.70;;;16.60;99.90;;;;;;5069463;28;20066;-64
2022/05/23 06:54:28;;;;;;;8.23;4.82;;;16.60;99.90;;;;;;5069713;28;20119;-64
2022/05/23 06:56:54;;;;;;;12.23;5.32;;;16.70;99.90;;;;;;5071351;28;20322;-64
2022/05/23 06:59:19;;;;;;;9.88;4.93;;;16.80;99.90;;;;;;5068639;28;20041;-64
2022/05/23 07:01:46;;;;;;;10.10;5.43;;;16.90;99.90;;;;;;5069468;28;20044;-64
2022/05/23 07:04:12;;;;;;;11.27;5.15;;;17.00;99.90;;;;;;5070980;28;20110;-64
2022/05/23 07:12:23;;;;;;;7.90;4.47;;;17.10;99.90;;;;;;5071110;28;20045;-64
2022/05/23 07:14:54;;;;;;;10.43;5.07;;;17.20;99.90;;;;;;5068650;28;20048;-64
2022/05/23 07:17:21;;;;;;;7.20;5.03;;;17.30;99.90;;;;;;5070575;28;20074;-64
2022/05/23 07:19:47;;;;;;;8.82;5.30;;;17.40;99.90;;;;;;5070962;28;20052;-64
2022/05/23 07:22:13;;;;;;;10.38;5.35;;;17.40;99.90;;;;;;5065926;28;20429;-65
2022/05/23 07:24:39;;;;;;;8.35;5.68;;;17.50;99.90;;;;;;5050775;28;20120;-64
2022/05/23 07:27:05;;;;;;;10.82;5.05;;;17.50;99.90;;;;;;5049455;28;20041;-64
2022/05/23 07:29:31;;;;;;;10.10;5.47;;;17.60;99.90;;;;;;5050859;28;20074;-64
2022/05/23 07:31:57;;;;;;;8.38;4.55;;;17.70;99.90;;;;;;5051778;28;20047;-64
2022/05/23 07:34:23;;;;;;;10.55;5.38;;;17.80;99.90;;;;;;5051016;28;20123;-64
2022/05/23 07:36:49;;;;;;;11.38;5.22;;;17.80;99.90;;;;;;5049366;28;20128;-64
2022/05/23 07:39:15;;;;;;;8.82;4.95;;;17.90;99.90;;;;;;5060725;28;20077;-64
2022/05/23 07:41:42;;;;;;;11.23;5.30;;;18.00;99.90;;;;;;5070611;28;20120;-64
2022/05/23 07:44:08;;;;;;;8.63;4.97;;;18.00;99.90;;;;;;5070771;28;20040;-64
2022/05/23 07:46:34;;;;;;;9.27;5.40;;;18.10;99.90;;;;;;5069766;28;20032;-64
2022/05/23 07:49:01;;;;;;;10.77;5.25;;;18.20;99.90;;;;;;5061808;28;20045;-64
2022/05/23 07:51:30;;;;;;;7.60;5.00;;;18.30;99.90;;;;;;5053810;28;20045;-64
2022/05/23 08:02:11;;;;;;;10.20;5.47;;;18.50;99.90;;;;;;5071943;28;20164;-64
2022/05/23 08:04:36;;;;;;;7.40;4.72;;;18.50;99.90;;;;;;5058190;28;20040;-65
2022/05/23 08:07:02;;;;;;;10.85;5.20;;;18.60;99.90;;;;;;5053902;28;20040;-64
2022/05/23 08:09:28;;;;;;;10.80;5.50;;;18.60;99.90;;;;;;5052211;28;20055;-64
2022/05/23 08:11:54;;;;;;;9.23;4.82;;;18.70;99.90;;;;;;5066079;28;20040;-65
2022/05/23 08:14:20;;;;;;;10.80;5.05;;;18.70;99.90;;;;;;5073847;28;20075;-64
2022/05/23 08:16:47;;;;;;;9.77;4.97;;;18.80;99.90;;;;;;5073952;28;20050;-65
2022/05/23 08:19:13;;;;;;;8.00;5.28;;;18.90;99.90;;;;;;5072438;28;20037;-65
2022/05/23 08:21:47;;;;;;;10.32;5.28;;;19.00;99.90;;;;;;5073761;28;20512;-64
2022/05/23 08:24:13;;;;;;;9.45;5.30;;;19.20;99.90;;;;;;5072336;28;20055;-66
2022/05/23 08:26:39;;;;;;;9.93;5.30;;;19.40;99.90;;;;;;5073222;28;20048;-65
2022/05/23 08:29:04;;;;;;;12.00;5.20;;;19.60;99.90;;;;;;5071754;28;20250;-65
2022/05/23 08:31:31;;;;;;;9.60;4.88;;;19.90;99.90;;;;;;5072380;28;20055;-64
2022/05/23 08:33:56;;;;;;;8.77;5.18;;;20.10;99.90;;;;;;5072519;28;20050;-65
2022/05/23 08:36:22;;;;;;;8.02;4.97;;;20.30;99.90;;;;;;5072239;28;20131;-64
2022/05/23 08:38:47;;;;;;;10.60;5.50;;;20.50;99.90;;;;;;5071680;28;20051;-65
2022/05/23 08:41:16;;;;;;;9.40;5.88;;;20.70;99.90;;;;;;5072027;28;20032;-64
2022/05/23 08:44:07;;;;;;;8.30;5.60;;;20.90;99.90;;;;;;5065821;28;20490;-65
2022/05/23 08:46:51;;;;;;;9.90;5.55;;;21.10;99.90;;;;;;5052177;28;20430;-65
2022/05/23 08:49:45;;;;;;;8.25;5.32;;;21.30;99.90;;;;;;5051886;28;20133;-65
2022/05/23 08:52:14;;;;;;;7.30;5.20;;;21.40;99.90;;;;;;5054603;28;20084;-65
2022/05/23 08:54:42;;;;;;;9.68;5.30;;;21.60;99.90;;;;;;5051729;28;20136;-65
2022/05/23 08:57:19;;;;;;;7.90;5.15;;;21.80;99.90;;;;;;5035134;28;20051;-65
2022/05/23 08:59:49;;;;;;;8.82;5.00;;;21.90;99.80;;;;;;5057892;28;20150;-65
2022/05/23 09:02:24;;;;;;;11.63;5.25;;;22.10;99.80;;;;;;5063912;28;20098;-65
2022/05/23 09:04:54;;;;;;;7.47;5.07;;;22.10;99.60;;;;;;5056664;28;20037;-65
2022/05/23 09:07:35;;;;;;;9.48;5.15;;;22.20;99.60;;;;;;5053699;28;20049;-65
2022/05/23 09:10:08;;;;;;;7.27;4.77;;;22.40;99.40;;;;;;5071536;28;20048;-65
2022/05/23 09:12:34;;;;;;;7.70;5.20;;;22.60;99.40;;;;;;5072696;28;20521;-65
2022/05/23 09:15:00;;;;;;;6.50;4.60;;;22.70;99.00;;;;;;5072792;28;20044;-65
2022/05/23 09:17:35;;;;;;;8.55;5.07;;;22.70;98.70;;;;;;5071374;28;20071;-65
2022/05/23 09:20:09;;;;;;;9.27;5.13;;;22.80;98.60;;;;;;5072525;28;20392;-65
2022/05/23 09:22:52;;;;;;;11.57;4.78;;;22.90;98.10;;;;;;5072732;28;20095;-66
2022/05/23 09:25:21;;;;;;;9.73;5.20;;;23.00;98.10;;;;;;5058546;28;20041;-65
2022/05/23 09:28:04;;;;;;;9.32;5.43;;;22.90;98.00;;;;;;5050775;28;20037;-65
2022/05/23 09:30:30;;;;;;;10.15;5.03;;;22.90;97.80;;;;;;5052490;28;20430;-65
2022/05/23 09:33:01;;;;;;;11.35;4.50;;;22.80;98.10;;;;;;5057683;28;20052;-65
2022/05/23 09:35:47;;;;;;;;;;;22.70;98.00;;;;;;5052422;28;20033;-65
2022/05/23 09:38:29;;;;;;;7.28;4.35;;;22.70;97.70;;;;;;5051386;28;19964;-65
2022/05/23 09:40:55;;;;;;;8.65;4.70;;;22.60;97.60;;;;;;5056205;28;20029;-65
2022/05/23 09:49:21;;;;;;;9.15;3.92;;;22.60;97.30;;;;;;5056065;28;20067;-65
2022/05/23 09:51:48;;;;;;;15.05;4.38;;;22.70;97.40;;;;;;5070589;28;20040;-65
2022/05/23 09:54:22;;;;;;;6.28;3.63;;;22.70;97.10;;;;;;5072050;28;20048;-65
2022/05/23 09:56:48;;;;;;;4.90;3.17;;;22.70;97.10;;;;;;5070927;28;20033;-65
2022/05/23 09:59:29;;;;;;;5.53;2.85;;;22.80;97.20;;;;;;5050289;28;20045;-65
2022/05/23 10:01:55;;;;;;;4.97;2.90;;;23.10;96.40;;;;;;5051797;28;20071;-65
2022/05/23 10:04:28;;;;;;;3.08;2.40;;;23.40;96.40;;;;;;5050587;28;20045;-65
2022/05/23 10:06:54;;;;;;;5.40;2.47;;;23.80;95.80;;;;;;5051564;28;20033;-66
2022/05/23 10:09:32;;;;;;;3.88;2.40;;;24.20;93.60;;;;;;5051760;28;20045;-65
2022/05/23 10:12:01;;;;;;;5.85;2.40;;;24.30;92.90;;;;;;5051306;28;20403;-65
2022/05/23 10:14:47;;;;;;;4.57;2.40;;;24.30;92.70;;;;;;5064031;28;20039;-65
2022/05/23 10:17:29;;;;;;;5.43;2.47;;;24.30;90.70;;;;;;5050633;28;20111;-65
2022/05/23 10:20:34;;;;;;;5.47;2.55;;;24.40;90.50;;;;;;5051707;28;20041;-65
2022/05/23 10:23:04;;;;;;;4.47;2.50;;;24.40;91.00;;;;;;5056741;28;20056;-65
2022/05/23 10:25:55;;;;;;;5.32;2.60;;;24.50;91.10;;;;;;5050026;28;20049;-65
2022/05/23 10:28:31;;;;;;;4.57;2.65;;;24.60;90.00;;;;;;5055350;28;20040;-65
2022/05/23 10:31:02;;;;;;;4.18;2.63;;;24.70;90.20;;;;;;5057404;28;20048;-65
2022/05/23 10:33:29;;;;;;;5.80;2.88;;;24.80;90.10;;;;;;5058266;28;20120;-65
2022/05/23 10:36:01;;;;;;;4.53;2.95;;;24.80;89.10;;;;;;5051367;28;20134;-66
2022/05/23 10:44:14;;;;;;;4.30;2.40;;;25.20;84.60;;;;;;5052807;28;20463;-66
2022/05/23 10:46:41;;;;;;;7.53;2.50;;;25.30;84.00;;;;;;5060656;28;20406;-65
2022/05/23 10:49:21;;;;;;;5.18;2.53;;;25.60;84.30;;;;;;5066378;28;20131;-65
2022/05/23 10:52:10;;;;;;;4.07;2.63;;;25.70;80.90;;;;;;5069992;28;20361;-65
2022/05/23 10:55:01;;;;;;;6.30;2.58;;;26.00;79.40;;;;;;5057653;28;20054;-65
2022/05/23 10:57:40;;;;;;;4.18;2.40;;;26.10;79.60;;;;;;5065751;28;20044;-66
2022/05/23 11:00:21;;;;;;;6.07;2.35;;;26.40;79.90;;;;;;5051114;28;20080;-66
2022/05/23 11:03:02;;;;;;;3.13;2.10;;;26.60;74.70;;;;;;5049942;28;20483;-65
2022/05/23 11:05:37;;;;;;;5.65;2.45;;;26.70;76.30;;;;;;5051249;28;20063;-66
2022/05/23 11:08:20;;;;;;;5.78;2.35;;;26.90;75.70;;;;;;5059372;28;20051;-65
2022/05/23 11:11:09;;;;;;;6.47;2.72;;;27.10;74.80;;;;;;5057737;28;20053;-66
2022/05/23 11:13:58;;;;;;;5.18;2.40;;;27.10;71.40;;;;;;5065333;28;20128;-66
2022/05/23 11:16:52;;;;;;;5.10;2.55;;;26.90;72.40;;;;;;5064458;28;20041;-65
2022/05/23 11:20:07;;;;;;;7.93;2.60;;;26.80;69.80;;;;;;5050357;28;20049;-66
2022/05/23 11:22:37;;;;;;;7.10;2.47;;;26.40;70.30;;;;;;5050118;28;20562;-65
2022/05/23 11:25:21;;;;;;;7.35;2.63;;;26.30;72.60;;;;;;5070461;28;20041;-65
2022/05/23 11:38:47;;;;;;;5.72;2.50;;;26.70;70.30;;;;;;5070986;28;20053;-67
2022/05/23 11:41:31;;;;;;;6.50;2.50;;;26.70;66.60;;;;;;5064247;28;20080;-67
2022/05/23 11:43:57;;;;;;;3.83;2.30;;;26.60;67.20;;;;;;5073147;28;20513;-67
2022/05/23 11:46:46;;;;;;;7.10;2.40;;;26.40;67.90;;;;;;5073227;28;20048;-67
2022/05/23 11:49:39;;;;;;;6.25;2.47;;;26.20;68.40;;;;;;5049596;28;20102;-67
2022/05/23 11:52:23;;;;;;;5.63;2.40;;;25.90;68.10;;;;;;5064505;28;20049;-67
2022/05/23 11:54:49;;;;;;;6.10;2.60;;;25.50;67.70;;;;;;5052827;28;20056;-67
2022/05/23 11:57:31;;;;;;;5.47;2.83;;;25.20;69.30;;;;;;5053322;28;20036;-68
2022/05/23 11:59:58;;;;;;;5.93;2.70;;;25.00;69.60;;;;;;5040411;28;20398;-67
2022/05/23 12:02:27;;;;;;;6.88;2.90;;;24.80;70.50;;;;;;5055484;28;20045;-67
2022/05/23 12:04:53;;;;;;;7.10;3.13;;;24.60;71.30;;;;;;5072071;28;20044;-68
2022/05/23 12:07:37;;;;;;;7.18;3.60;;;24.50;72.80;;;;;;5045995;28;20059;-67
2022/05/23 12:10:21;;;;;;;6.45;3.40;;;24.40;74.20;;;;;;5052329;28;20049;-67
2022/05/23 12:12:48;;;;;;;6.65;3.25;;;24.20;74.00;;;;;;5035787;28;20132;-67
2022/05/23 12:15:42;;;;;;;6.90;3.72;;;24.10;74.60;;;;;;5042817;28;20048;-67
2022/05/23 12:18:19;;;;;;;6.90;4.50;;;24.10;75.10;;;;;;5051488;28;20049;-67
2022/05/23 12:20:54;;;;;;;8.27;5.10;;;23.90;76.30;;;;;;5051902;28;20163;-65
2022/05/23 12:23:44;;;;;;;6.68;4.30;;;23.90;76.00;;;;;;5046733;28;20043;-65
2022/05/23 12:26:10;;;;;;;8.93;4.47;;;23.70;77.00;;;;;;5051879;28;20487;-65
2022/05/23 12:28:43;;;;;;;7.45;4.35;;;23.60;77.50;;;;;;5035933;28;20041;-65
2022/05/23 12:31:15;;;;;;;7.07;4.07;;;23.60;78.70;;;;;;5054869;28;20051;-65
2022/05/23 12:33:49;;;;;;;6.97;4.25;;;23.50;78.50;;;;;;5051933;28;20124;-65
2022/05/23 12:36:20;;;;;;;6.72;3.55;;;23.50;79.30;;;;;;5044058;28;20079;-65
2022/05/23 12:39:05;;;;;;;9.90;4.70;;;23.50;80.40;;;;;;5051080;28;20136;-65
2022/05/23 12:41:50;;;;;;;6.95;4.53;;;23.40;81.50;;;;;;5051966;28;20102;-64
2022/05/23 12:44:44;;;;;;;6.50;3.90;;;23.40;82.00;;;;;;5049412;28;20044;-65
2022/05/23 12:47:29;;;;;;;10.20;5.05;;;23.30;85.00;;;;;;5051201;28;20123;-65
2022/05/23 12:50:16;;;;;;;12.27;5.55;;;23.20;86.70;;;;;;5052760;28;20051;-65
2022/05/23 12:53:01;;;;;;;7.18;5.85;;;23.00;87.00;;;;;;5046887;28;20052;-64
2022/05/23 12:56:13;;;;;;;6.63;4.93;;;22.90;88.50;;;;;;5051523;28;20087;-65
2022/05/23 12:59:10;;;;;;;8.25;5.13;;;22.80;90.10;;;;;;5052009;28;20039;-65
2022/05/23 13:01:38;;;;;;;7.88;4.47;;;22.70;90.50;;;;;;5052606;28;20094;-65
2022/05/23 13:04:09;;;;;;;7.95;5.50;;;22.60;90.50;;;;;;5051454;28;20086;-65
2022/05/23 13:06:58;;;;;;;7.82;4.95;;;22.60;91.30;;;;;;5051148;28;20033;-66
2022/05/23 13:09:44;;;;;;;10.95;5.22;;;22.60;92.00;;;;;;5056002;28;20169;-65
2022/05/23 13:12:23;;;;;;;8.68;4.60;;;22.60;92.00;;;;;;5072461;28;20044;-65
2022/05/23 13:14:50;;;;;;;6.82;5.63;;;22.60;92.20;;;;;;5054360;28;20040;-65
2022/05/23 13:17:30;;;;;;;6.53;4.93;;;22.60;92.60;;;;;;5052295;28;20115;-65
2022/05/23 13:22:41;;;;;;;8.18;5.05;;;22.70;92.30;;;;;;5047200;28;20049;-65
2022/05/23 13:25:06;;;;;;;8.45;5.38;;;22.70;92.50;;;;;;5050811;28;20129;-64
2022/05/23 13:27:43;;;;;;;8.93;5.53;;;22.70;92.70;;;;;;5051739;28;20546;-65
2022/05/23 13:30:15;;;;;;;9.13;5.80;;;22.80;93.10;;;;;;5042299;28;20407;-65
2022/05/23 13:32:41;;;;;;;8.10;5.43;;;22.80;93.20;;;;;;5050443;28;20059;-65
2022/05/23 13:35:20;;;;;;;10.82;5.80;;;22.90;93.10;;;;;;5050690;28;20045;-65
2022/05/23 13:37:46;;;;;;;8.77;5.68;;;23.00;93.30;;;;;;5047889;28;20116;-64
2022/05/23 13:40:15;;;;;;;9.00;4.97;;;23.20;93.50;;;;;;5051714;28;20186;-65
2022/05/23 13:42:41;;;;;;;8.10;4.55;;;23.30;93.50;;;;;;5046111;28;20095;-65
2022/05/23 13:45:15;;;;;;;8.85;5.72;;;23.50;93.30;;;;;;5051085;28;20072;-65
2022/05/23 13:48:00;;;;;;;7.68;4.85;;;23.60;92.80;;;;;;5041492;28;20578;-65
2022/05/23 13:50:33;;;;;;;6.80;4.70;;;23.70;92.50;;;;;;5049753;28;20380;-65
2022/05/23 13:53:16;;;;;;;9.00;4.93;;;23.70;92.10;;;;;;5049340;28;20036;-65
2022/05/23 13:55:51;;;;;;;6.43;4.45;;;23.80;91.80;;;;;;5018239;28;20085;-65
2022/05/23 13:58:21;;;;;;;8.23;4.63;;;23.70;92.00;;;;;;5036017;28;20061;-65
2022/05/23 14:00:55;;;;;;;9.05;4.47;;;23.70;91.90;;;;;;5033567;28;20040;-64
2022/05/23 14:03:27;;;;;;;7.93;5.82;;;23.70;91.90;;;;;;5041923;28;20403;-65
2022/05/23 14:05:55;;;;;;;9.63;6.45;;;23.60;91.40;;;;;;5059381;28;20368;-65
2022/05/23 14:08:34;;;;;;;9.55;4.90;;;23.60;91.10;;;;;;5059920;28;20034;-65